sensor_id;sensor_type;location;lat;lon;timestamp;P1;durP1;ratioP1;P2;durP2;ratioP2
21681;SDS011;11002;48.256;10.084;2023-04-16T00:01:01;2.30;;;2.10;;
21681;SDS011;11002;48.256;10.084;2023-04-16T00:03:30;2.33;;;2.13;;
21681;SDS011;11002;48.256;10.084;2023-04-16T00:05:57;2.38;;;2.13;;
21681;SDS011;11002;48.256;10.084;2023-04-16T00:08:25;1.88;;;1.77;;
21681;SDS011;11002;48.256;10.084;2023-04-16T00:10:52;1.85;;;1.75;;
21681;SDS011;11002;48.256;10.084;2023-04-16T00:13:19;2.22;;;2.00;;
21681;SDS011;11002;48.256;10.084;2023-04-16T00:15:47;2.00;;;1.90;;
21681;SDS011;11002;48.256;10.084;2023-04-16T00:18:14;2.08;;;1.92;;
21681;SDS011;11002;48.256;10.084;2023-04-16T00:20:43;2.78;;;1.65;;
21681;SDS011;11002;48.256;10.084;2023-04-16T00:23:10;1.95;;;1.80;;
21681;SDS011;11002;48.256;10.084;2023-04-16T00:25:38;2.53;;;2.15;;
21681;SDS011;11002;48.256;10.084;2023-04-16T00:28:05;2.20;;;1.95;;
21681;SDS011;11002;48.256;10.084;2023-04-16T00:30:33;2.30;;;2.10;;
21681;SDS011;11002;48.256;10.084;2023-04-16T00:33:01;1.73;;;1.63;;
21681;SDS011;11002;48.256;10.084;2023-04-16T00:35:29;2.65;;;2.08;;
21681;SDS011;11002;48.256;10.084;2023-04-16T00:37:57;2.03;;;1.92;;
21681;SDS011;11002;48.256;10.084;2023-04-16T00:40:26;2.45;;;2.25;;
21681;SDS011;11002;48.256;10.084;2023-04-16T00:42:54;2.40;;;2.20;;
21681;SDS011;11002;48.256;10.084;2023-04-16T00:45:22;4.90;;;2.47;;
21681;SDS011;11002;48.256;10.084;2023-04-16T00:47:49;2.25;;;2.05;;
21681;SDS011;11002;48.256;10.084;2023-04-16T00:50:17;2.70;;;2.50;;
21681;SDS011;11002;48.256;10.084;2023-04-16T00:52:45;3.85;;;2.63;;
21681;SDS011;11002;48.256;10.084;2023-04-16T00:55:15;3.08;;;2.78;;
21681;SDS011;11002;48.256;10.084;2023-04-16T00:57:43;2.97;;;2.67;;
21681;SDS011;11002;48.256;10.084;2023-04-16T01:00:11;2.85;;;2.20;;
21681;SDS011;11002;48.256;10.084;2023-04-16T01:02:39;3.33;;;3.03;;
21681;SDS011;11002;48.256;10.084;2023-04-16T01:05:06;3.33;;;2.83;;
21681;SDS011;11002;48.256;10.084;2023-04-16T01:07:34;3.30;;;3.00;;
21681;SDS011;11002;48.256;10.084;2023-04-16T01:10:02;4.10;;;3.30;;
21681;SDS011;11002;48.256;10.084;2023-04-16T01:12:31;3.40;;;3.10;;
21681;SDS011;11002;48.256;10.084;2023-04-16T01:14:58;4.13;;;3.38;;
21681;SDS011;11002;48.256;10.084;2023-04-16T01:17:26;3.72;;;3.38;;
21681;SDS011;11002;48.256;10.084;2023-04-16T01:19:53;3.35;;;3.05;;
21681;SDS011;11002;48.256;10.084;2023-04-16T01:22:26;3.42;;;2.80;;
21681;SDS011;11002;48.256;10.084;2023-04-16T01:24:53;3.60;;;3.30;;
21681;SDS011;11002;48.256;10.084;2023-04-16T01:27:22;3.72;;;3.42;;
21681;SDS011;11002;48.256;10.084;2023-04-16T01:29:49;3.70;;;3.35;;
21681;SDS011;11002;48.256;10.084;2023-04-16T01:32:22;3.78;;;3.40;;
21681;SDS011;11002;48.256;10.084;2023-04-16T01:34:49;3.75;;;3.33;;
21681;SDS011;11002;48.256;10.084;2023-04-16T01:37:17;3.22;;;2.92;;
21681;SDS011;11002;48.256;10.084;2023-04-16T01:39:46;3.80;;;3.30;;
21681;SDS011;11002;48.256;10.084;2023-04-16T01:42:13;4.65;;;3.38;;
21681;SDS011;11002;48.256;10.084;2023-04-16T01:44:41;3.90;;;3.50;;
21681;SDS011;11002;48.256;10.084;2023-04-16T01:47:09;3.85;;;3.30;;
21681;SDS011;11002;48.256;10.084;2023-04-16T01:49:36;3.50;;;3.20;;
21681;SDS011;11002;48.256;10.084;2023-04-16T01:52:04;4.00;;;3.40;;
21681;SDS011;11002;48.256;10.084;2023-04-16T01:54:32;3.75;;;3.40;;
21681;SDS011;11002;48.256;10.084;2023-04-16T01:57:01;4.80;;;3.75;;
21681;SDS011;11002;48.256;10.084;2023-04-16T01:59:28;3.45;;;3.15;;
21681;SDS011;11002;48.256;10.084;2023-04-16T02:01:57;3.83;;;3.30;;
21681;SDS011;11002;48.256;10.084;2023-04-16T02:04:26;4.47;;;3.45;;
21681;SDS011;11002;48.256;10.084;2023-04-16T02:06:53;5.05;;;3.83;;
21681;SDS011;11002;48.256;10.084;2023-04-16T02:09:21;4.13;;;3.55;;
21681;SDS011;11002;48.256;10.084;2023-04-16T02:11:48;3.88;;;3.28;;
21681;SDS011;11002;48.256;10.084;2023-04-16T02:14:17;3.92;;;3.42;;
21681;SDS011;11002;48.256;10.084;2023-04-16T02:16:46;4.38;;;3.67;;
21681;SDS011;11002;48.256;10.084;2023-04-16T02:19:31;6.07;;;3.13;;
21681;SDS011;11002;48.256;10.084;2023-04-16T02:21:59;3.38;;;3.08;;
21681;SDS011;11002;48.256;10.084;2023-04-16T02:24:27;4.43;;;3.08;;
21681;SDS011;11002;48.256;10.084;2023-04-16T02:26:55;3.22;;;2.92;;
21681;SDS011;11002;48.256;10.084;2023-04-16T02:29:24;4.20;;;3.13;;
21681;SDS011;11002;48.256;10.084;2023-04-16T02:31:59;3.13;;;2.80;;
21681;SDS011;11002;48.256;10.084;2023-04-16T02:34:27;3.25;;;2.65;;
21681;SDS011;11002;48.256;10.084;2023-04-16T02:36:55;5.72;;;2.90;;
21681;SDS011;11002;48.256;10.084;2023-04-16T02:39:24;2.85;;;2.55;;
21681;SDS011;11002;48.256;10.084;2023-04-16T02:41:52;3.13;;;2.70;;
21681;SDS011;11002;48.256;10.084;2023-04-16T02:44:20;2.40;;;2.20;;
21681;SDS011;11002;48.256;10.084;2023-04-16T02:46:54;4.07;;;2.53;;
21681;SDS011;11002;48.256;10.084;2023-04-16T02:49:21;2.72;;;2.35;;
21681;SDS011;11002;48.256;10.084;2023-04-16T02:51:48;2.72;;;2.53;;
21681;SDS011;11002;48.256;10.084;2023-04-16T02:54:16;2.55;;;2.35;;
21681;SDS011;11002;48.256;10.084;2023-04-16T02:56:43;2.67;;;2.47;;
21681;SDS011;11002;48.256;10.084;2023-04-16T02:59:11;2.55;;;2.35;;
21681;SDS011;11002;48.256;10.084;2023-04-16T03:01:38;2.90;;;2.65;;
21681;SDS011;11002;48.256;10.084;2023-04-16T03:04:07;3.00;;;2.80;;
21681;SDS011;11002;48.256;10.084;2023-04-16T03:06:34;2.95;;;2.65;;
21681;SDS011;11002;48.256;10.084;2023-04-16T03:09:05;3.65;;;2.60;;
21681;SDS011;11002;48.256;10.084;2023-04-16T03:11:32;2.95;;;2.70;;
21681;SDS011;11002;48.256;10.084;2023-04-16T03:13:59;5.00;;;2.53;;
21681;SDS011;11002;48.256;10.084;2023-04-16T03:16:27;3.20;;;2.90;;
21681;SDS011;11002;48.256;10.084;2023-04-16T03:18:54;2.65;;;2.45;;
21681;SDS011;11002;48.256;10.084;2023-04-16T03:21:23;3.05;;;2.75;;
21681;SDS011;11002;48.256;10.084;2023-04-16T03:23:52;2.97;;;2.67;;
21681;SDS011;11002;48.256;10.084;2023-04-16T03:26:22;3.33;;;3.03;;
21681;SDS011;11002;48.256;10.084;2023-04-16T03:28:50;3.25;;;2.88;;
21681;SDS011;11002;48.256;10.084;2023-04-16T03:31:17;2.92;;;2.60;;
21681;SDS011;11002;48.256;10.084;2023-04-16T03:33:45;3.92;;;2.83;;
21681;SDS011;11002;48.256;10.084;2023-04-16T03:36:12;3.00;;;2.80;;
21681;SDS011;11002;48.256;10.084;2023-04-16T03:38:41;3.47;;;3.13;;
21681;SDS011;11002;48.256;10.084;2023-04-16T03:41:08;3.83;;;3.42;;
21681;SDS011;11002;48.256;10.084;2023-04-16T03:43:36;3.47;;;3.17;;
21681;SDS011;11002;48.256;10.084;2023-04-16T03:46:05;2.90;;;2.70;;
21681;SDS011;11002;48.256;10.084;2023-04-16T03:48:32;3.53;;;3.22;;
21681;SDS011;11002;48.256;10.084;2023-04-16T03:50:59;4.10;;;2.97;;
21681;SDS011;11002;48.256;10.084;2023-04-16T03:53:27;3.20;;;2.90;;
21681;SDS011;11002;48.256;10.084;2023-04-16T03:55:56;3.78;;;3.30;;
21681;SDS011;11002;48.256;10.084;2023-04-16T03:58:24;4.07;;;3.60;;
21681;SDS011;11002;48.256;10.084;2023-04-16T04:00:52;3.85;;;3.45;;
21681;SDS011;11002;48.256;10.084;2023-04-16T04:03:20;4.07;;;3.67;;
21681;SDS011;11002;48.256;10.084;2023-04-16T04:05:48;3.58;;;3.22;;
21681;SDS011;11002;48.256;10.084;2023-04-16T04:10:50;3.63;;;3.00;;
21681;SDS011;11002;48.256;10.084;2023-04-16T04:13:21;4.50;;;4.10;;
21681;SDS011;11002;48.256;10.084;2023-04-16T04:15:50;8.73;;;3.88;;
21681;SDS011;11002;48.256;10.084;2023-04-16T04:18:17;9.57;;;3.67;;
21681;SDS011;11002;48.256;10.084;2023-04-16T04:20:45;3.63;;;3.33;;
21681;SDS011;11002;48.256;10.084;2023-04-16T04:23:15;4.20;;;3.70;;
21681;SDS011;11002;48.256;10.084;2023-04-16T04:25:44;4.13;;;3.55;;
21681;SDS011;11002;48.256;10.084;2023-04-16T04:28:12;4.32;;;3.85;;
21681;SDS011;11002;48.256;10.084;2023-04-16T04:30:40;4.28;;;3.88;;
21681;SDS011;11002;48.256;10.084;2023-04-16T04:33:08;26.52;;;16.75;;
21681;SDS011;11002;48.256;10.084;2023-04-16T04:35:37;9.75;;;7.35;;
21681;SDS011;11002;48.256;10.084;2023-04-16T04:38:04;8.32;;;6.38;;
21681;SDS011;11002;48.256;10.084;2023-04-16T04:40:32;7.53;;;6.32;;
21681;SDS011;11002;48.256;10.084;2023-04-16T04:43:00;5.82;;;5.13;;
21681;SDS011;11002;48.256;10.084;2023-04-16T04:45:27;5.63;;;4.93;;
21681;SDS011;11002;48.256;10.084;2023-04-16T04:47:57;5.85;;;4.45;;
21681;SDS011;11002;48.256;10.084;2023-04-16T04:50:24;4.72;;;4.22;;
21681;SDS011;11002;48.256;10.084;2023-04-16T04:52:52;5.97;;;5.00;;
21681;SDS011;11002;48.256;10.084;2023-04-16T04:55:20;5.32;;;4.63;;
21681;SDS011;11002;48.256;10.084;2023-04-16T04:57:49;4.80;;;4.30;;
21681;SDS011;11002;48.256;10.084;2023-04-16T05:00:16;4.97;;;4.47;;
21681;SDS011;11002;48.256;10.084;2023-04-16T05:02:51;5.30;;;4.40;;
21681;SDS011;11002;48.256;10.084;2023-04-16T05:05:20;4.38;;;3.92;;
21681;SDS011;11002;48.256;10.084;2023-04-16T05:07:47;4.47;;;4.07;;
21681;SDS011;11002;48.256;10.084;2023-04-16T05:10:15;4.28;;;3.53;;
21681;SDS011;11002;48.256;10.084;2023-04-16T05:12:42;4.30;;;3.90;;
21681;SDS011;11002;48.256;10.084;2023-04-16T05:15:10;4.32;;;3.92;;
21681;SDS011;11002;48.256;10.084;2023-04-16T05:17:37;4.38;;;3.97;;
21681;SDS011;11002;48.256;10.084;2023-04-16T05:20:05;4.03;;;3.63;;
21681;SDS011;11002;48.256;10.084;2023-04-16T05:22:35;4.55;;;4.15;;
21681;SDS011;11002;48.256;10.084;2023-04-16T05:25:02;4.63;;;3.92;;
21681;SDS011;11002;48.256;10.084;2023-04-16T05:27:30;4.63;;;3.90;;
21681;SDS011;11002;48.256;10.084;2023-04-16T05:29:57;4.05;;;3.60;;
21681;SDS011;11002;48.256;10.084;2023-04-16T05:32:25;4.25;;;3.53;;
21681;SDS011;11002;48.256;10.084;2023-04-16T05:34:52;4.20;;;3.80;;
21681;SDS011;11002;48.256;10.084;2023-04-16T05:37:20;4.15;;;3.75;;
21681;SDS011;11002;48.256;10.084;2023-04-16T05:39:48;4.40;;;4.00;;
21681;SDS011;11002;48.256;10.084;2023-04-16T05:42:16;4.05;;;3.65;;
21681;SDS011;11002;48.256;10.084;2023-04-16T05:44:43;4.18;;;3.38;;
21681;SDS011;11002;48.256;10.084;2023-04-16T05:47:10;3.42;;;3.13;;
21681;SDS011;11002;48.256;10.084;2023-04-16T05:49:38;3.35;;;3.05;;
21681;SDS011;11002;48.256;10.084;2023-04-16T05:52:05;3.90;;;3.35;;
21681;SDS011;11002;48.256;10.084;2023-04-16T05:54:32;3.50;;;3.20;;
21681;SDS011;11002;48.256;10.084;2023-04-16T05:57:01;3.13;;;2.85;;
21681;SDS011;11002;48.256;10.084;2023-04-16T05:59:29;2.90;;;2.70;;
21681;SDS011;11002;48.256;10.084;2023-04-16T06:01:56;3.67;;;3.03;;
21681;SDS011;11002;48.256;10.084;2023-04-16T06:04:24;3.20;;;2.90;;
21681;SDS011;11002;48.256;10.084;2023-04-16T06:06:51;3.47;;;3.17;;
21681;SDS011;11002;48.256;10.084;2023-04-16T06:09:18;2.65;;;2.40;;
21681;SDS011;11002;48.256;10.084;2023-04-16T06:11:46;3.40;;;3.10;;
21681;SDS011;11002;48.256;10.084;2023-04-16T06:14:14;2.70;;;2.42;;
21681;SDS011;11002;48.256;10.084;2023-04-16T06:16:42;3.80;;;2.20;;
21681;SDS011;11002;48.256;10.084;2023-04-16T06:19:09;2.40;;;2.20;;
21681;SDS011;11002;48.256;10.084;2023-04-16T06:21:37;2.63;;;2.42;;
21681;SDS011;11002;48.256;10.084;2023-04-16T06:24:04;2.53;;;2.33;;
21681;SDS011;11002;48.256;10.084;2023-04-16T06:26:32;2.53;;;2.33;;
21681;SDS011;11002;48.256;10.084;2023-04-16T06:28:59;3.42;;;1.90;;
21681;SDS011;11002;48.256;10.084;2023-04-16T06:31:28;2.50;;;2.30;;
21681;SDS011;11002;48.256;10.084;2023-04-16T06:33:56;2.33;;;1.77;;
21681;SDS011;11002;48.256;10.084;2023-04-16T06:36:23;2.03;;;1.90;;
21681;SDS011;11002;48.256;10.084;2023-04-16T06:38:51;1.73;;;1.63;;
21681;SDS011;11002;48.256;10.084;2023-04-16T06:41:19;2.13;;;1.90;;
21681;SDS011;11002;48.256;10.084;2023-04-16T06:43:47;5.55;;;1.70;;
21681;SDS011;11002;48.256;10.084;2023-04-16T06:46:14;1.95;;;1.75;;
21681;SDS011;11002;48.256;10.084;2023-04-16T06:48:43;2.10;;;1.90;;
21681;SDS011;11002;48.256;10.084;2023-04-16T06:51:10;2.00;;;1.80;;
21681;SDS011;11002;48.256;10.084;2023-04-16T06:53:38;2.50;;;1.63;;
21681;SDS011;11002;48.256;10.084;2023-04-16T06:56:07;2.03;;;1.42;;
21681;SDS011;11002;48.256;10.084;2023-04-16T06:58:34;3.38;;;1.60;;
21681;SDS011;11002;48.256;10.084;2023-04-16T07:01:01;1.50;;;1.40;;
21681;SDS011;11002;48.256;10.084;2023-04-16T07:03:29;1.65;;;1.55;;
21681;SDS011;11002;48.256;10.084;2023-04-16T07:05:58;1.80;;;1.70;;
21681;SDS011;11002;48.256;10.084;2023-04-16T07:08:25;2.08;;;1.35;;
21681;SDS011;11002;48.256;10.084;2023-04-16T07:10:53;1.30;;;1.20;;
21681;SDS011;11002;48.256;10.084;2023-04-16T07:13:20;1.20;;;1.10;;
21681;SDS011;11002;48.256;10.084;2023-04-16T07:15:49;1.77;;;1.23;;
21681;SDS011;11002;48.256;10.084;2023-04-16T07:18:17;2.05;;;1.65;;
21681;SDS011;11002;48.256;10.084;2023-04-16T07:20:44;4.55;;;1.70;;
21681;SDS011;11002;48.256;10.084;2023-04-16T07:23:13;1.40;;;1.25;;
21681;SDS011;11002;48.256;10.084;2023-04-16T07:25:40;1.67;;;1.25;;
21681;SDS011;11002;48.256;10.084;2023-04-16T07:28:08;2.05;;;1.35;;
21681;SDS011;11002;48.256;10.084;2023-04-16T07:30:35;1.55;;;1.20;;
21681;SDS011;11002;48.256;10.084;2023-04-16T07:33:03;1.23;;;1.13;;
21681;SDS011;11002;48.256;10.084;2023-04-16T07:35:30;1.15;;;0.98;;
21681;SDS011;11002;48.256;10.084;2023-04-16T07:37:58;1.80;;;1.33;;
21681;SDS011;11002;48.256;10.084;2023-04-16T07:40:26;5.78;;;1.08;;
21681;SDS011;11002;48.256;10.084;2023-04-16T07:42:54;1.50;;;1.40;;
21681;SDS011;11002;48.256;10.084;2023-04-16T07:45:22;1.77;;;1.10;;
21681;SDS011;11002;48.256;10.084;2023-04-16T07:47:49;1.63;;;1.30;;
21681;SDS011;11002;48.256;10.084;2023-04-16T07:50:16;1.27;;;1.17;;
21681;SDS011;11002;48.256;10.084;2023-04-16T07:52:45;1.27;;;1.00;;
21681;SDS011;11002;48.256;10.084;2023-04-16T07:55:12;0.95;;;0.90;;
21681;SDS011;11002;48.256;10.084;2023-04-16T07:57:41;1.33;;;1.23;;
21681;SDS011;11002;48.256;10.084;2023-04-16T08:00:09;0.80;;;0.80;;
21681;SDS011;11002;48.256;10.084;2023-04-16T08:02:40;3.15;;;1.30;;
21681;SDS011;11002;48.256;10.084;2023-04-16T08:05:09;2.25;;;1.10;;
21681;SDS011;11002;48.256;10.084;2023-04-16T08:07:36;1.23;;;1.10;;
21681;SDS011;11002;48.256;10.084;2023-04-16T08:10:04;0.90;;;0.90;;
21681;SDS011;11002;48.256;10.084;2023-04-16T08:12:32;1.30;;;1.20;;
21681;SDS011;11002;48.256;10.084;2023-04-16T08:15:02;1.88;;;1.40;;
21681;SDS011;11002;48.256;10.084;2023-04-16T08:17:31;2.60;;;1.40;;
21681;SDS011;11002;48.256;10.084;2023-04-16T08:19:58;2.70;;;1.30;;
21681;SDS011;11002;48.256;10.084;2023-04-16T08:22:26;1.33;;;1.23;;
21681;SDS011;11002;48.256;10.084;2023-04-16T08:24:53;2.85;;;2.15;;
21681;SDS011;11002;48.256;10.084;2023-04-16T08:27:21;1.23;;;1.13;;
21681;SDS011;11002;48.256;10.084;2023-04-16T08:29:48;2.17;;;1.30;;
21681;SDS011;11002;48.256;10.084;2023-04-16T08:32:17;2.10;;;1.90;;
21681;SDS011;11002;48.256;10.084;2023-04-16T08:34:45;1.98;;;1.70;;
21681;SDS011;11002;48.256;10.084;2023-04-16T08:37:12;1.38;;;1.27;;
21681;SDS011;11002;48.256;10.084;2023-04-16T08:39:39;1.23;;;1.13;;
21681;SDS011;11002;48.256;10.084;2023-04-16T08:42:12;1.98;;;1.70;;
21681;SDS011;11002;48.256;10.084;2023-04-16T08:44:47;2.33;;;1.90;;
21681;SDS011;11002;48.256;10.084;2023-04-16T08:47:16;1.98;;;1.65;;
21681;SDS011;11002;48.256;10.084;2023-04-16T08:49:50;2.10;;;1.90;;
21681;SDS011;11002;48.256;10.084;2023-04-16T08:52:21;1.73;;;1.50;;
21681;SDS011;11002;48.256;10.084;2023-04-16T08:54:51;2.08;;;1.88;;
21681;SDS011;11002;48.256;10.084;2023-04-16T08:57:28;2.20;;;2.00;;
21681;SDS011;11002;48.256;10.084;2023-04-16T09:00:01;3.50;;;3.20;;
21681;SDS011;11002;48.256;10.084;2023-04-16T09:02:31;2.78;;;2.42;;
21681;SDS011;11002;48.256;10.084;2023-04-16T09:04:59;2.75;;;2.47;;
21681;SDS011;11002;48.256;10.084;2023-04-16T09:07:29;5.68;;;4.68;;
21681;SDS011;11002;48.256;10.084;2023-04-16T09:10:00;7.53;;;5.97;;
21681;SDS011;11002;48.256;10.084;2023-04-16T09:12:28;5.00;;;4.10;;
21681;SDS011;11002;48.256;10.084;2023-04-16T09:14:56;3.65;;;3.03;;
21681;SDS011;11002;48.256;10.084;2023-04-16T09:17:27;4.25;;;2.20;;
21681;SDS011;11002;48.256;10.084;2023-04-16T09:19:57;3.05;;;1.38;;
21681;SDS011;11002;48.256;10.084;2023-04-16T09:22:24;1.88;;;1.70;;
21681;SDS011;11002;48.256;10.084;2023-04-16T09:24:51;2.33;;;1.33;;
21681;SDS011;11002;48.256;10.084;2023-04-16T09:27:19;1.70;;;1.60;;
21681;SDS011;11002;48.256;10.084;2023-04-16T09:29:49;1.60;;;1.50;;
21681;SDS011;11002;48.256;10.084;2023-04-16T09:32:23;2.13;;;1.70;;
21681;SDS011;11002;48.256;10.084;2023-04-16T09:35:01;1.67;;;1.58;;
21681;SDS011;11002;48.256;10.084;2023-04-16T09:37:29;1.88;;;1.58;;
21681;SDS011;11002;48.256;10.084;2023-04-16T09:39:59;1.40;;;1.30;;
21681;SDS011;11002;48.256;10.084;2023-04-16T09:42:30;1.80;;;1.30;;
21681;SDS011;11002;48.256;10.084;2023-04-16T09:44:59;2.13;;;1.50;;
21681;SDS011;11002;48.256;10.084;2023-04-16T09:47:37;2.63;;;1.30;;
21681;SDS011;11002;48.256;10.084;2023-04-16T09:50:08;3.67;;;1.13;;
21681;SDS011;11002;48.256;10.084;2023-04-16T09:52:41;1.73;;;1.40;;
21681;SDS011;11002;48.256;10.084;2023-04-16T09:55:09;2.00;;;1.80;;
21681;SDS011;11002;48.256;10.084;2023-04-16T09:57:37;1.40;;;1.30;;
21681;SDS011;11002;48.256;10.084;2023-04-16T10:00:06;3.35;;;2.17;;
21681;SDS011;11002;48.256;10.084;2023-04-16T10:02:38;2.53;;;1.55;;
21681;SDS011;11002;48.256;10.084;2023-04-16T10:05:08;2.20;;;1.98;;
21681;SDS011;11002;48.256;10.084;2023-04-16T10:10:08;1.95;;;1.38;;
21681;SDS011;11002;48.256;10.084;2023-04-16T10:12:36;6.30;;;1.80;;
21681;SDS011;11002;48.256;10.084;2023-04-16T10:15:04;1.73;;;1.60;;
21681;SDS011;11002;48.256;10.084;2023-04-16T10:17:35;1.50;;;1.40;;
21681;SDS011;11002;48.256;10.084;2023-04-16T10:20:05;2.47;;;1.80;;
21681;SDS011;11002;48.256;10.084;2023-04-16T10:22:35;1.55;;;1.45;;
21681;SDS011;11002;48.256;10.084;2023-04-16T10:25:03;1.73;;;1.40;;
21681;SDS011;11002;48.256;10.084;2023-04-16T10:27:31;1.85;;;1.70;;
21681;SDS011;11002;48.256;10.084;2023-04-16T10:29:59;1.55;;;1.45;;
21681;SDS011;11002;48.256;10.084;2023-04-16T10:32:26;4.82;;;3.50;;
21681;SDS011;11002;48.256;10.084;2023-04-16T10:34:56;3.58;;;2.30;;
21681;SDS011;11002;48.256;10.084;2023-04-16T10:37:29;2.60;;;2.30;;
21681;SDS011;11002;48.256;10.084;2023-04-16T10:39:56;3.45;;;3.15;;
21681;SDS011;11002;48.256;10.084;2023-04-16T10:42:24;4.65;;;2.28;;
21681;SDS011;11002;48.256;10.084;2023-04-16T10:44:52;2.55;;;2.35;;
21681;SDS011;11002;48.256;10.084;2023-04-16T10:47:19;5.32;;;2.10;;
21681;SDS011;11002;48.256;10.084;2023-04-16T10:49:51;1.70;;;1.60;;
21681;SDS011;11002;48.256;10.084;2023-04-16T10:52:18;2.30;;;1.95;;
21681;SDS011;11002;48.256;10.084;2023-04-16T10:54:48;1.90;;;1.80;;
21681;SDS011;11002;48.256;10.084;2023-04-16T10:57:20;2.30;;;2.10;;
21681;SDS011;11002;48.256;10.084;2023-04-16T10:59:47;1.98;;;1.80;;
21681;SDS011;11002;48.256;10.084;2023-04-16T11:02:15;2.40;;;2.20;;
21681;SDS011;11002;48.256;10.084;2023-04-16T11:04:43;2.00;;;1.90;;
21681;SDS011;11002;48.256;10.084;2023-04-16T11:07:14;2.17;;;1.98;;
21681;SDS011;11002;48.256;10.084;2023-04-16T11:09:54;2.25;;;2.05;;
21681;SDS011;11002;48.256;10.084;2023-04-16T11:12:24;2.33;;;1.90;;
21681;SDS011;11002;48.256;10.084;2023-04-16T11:14:53;2.22;;;2.00;;
21681;SDS011;11002;48.256;10.084;2023-04-16T11:17:27;2.10;;;1.90;;
21681;SDS011;11002;48.256;10.084;2023-04-16T11:19:55;2.28;;;2.05;;
21681;SDS011;11002;48.256;10.084;2023-04-16T11:22:22;3.65;;;2.30;;
21681;SDS011;11002;48.256;10.084;2023-04-16T11:24:54;2.30;;;2.10;;
21681;SDS011;11002;48.256;10.084;2023-04-16T11:27:22;2.35;;;2.13;;
21681;SDS011;11002;48.256;10.084;2023-04-16T11:29:56;2.58;;;2.38;;
21681;SDS011;11002;48.256;10.084;2023-04-16T11:32:24;2.15;;;1.95;;
21681;SDS011;11002;48.256;10.084;2023-04-16T11:34:52;2.25;;;1.90;;
21681;SDS011;11002;48.256;10.084;2023-04-16T11:37:20;2.67;;;2.30;;
21681;SDS011;11002;48.256;10.084;2023-04-16T11:39:48;2.38;;;2.13;;
21681;SDS011;11002;48.256;10.084;2023-04-16T11:42:21;3.75;;;2.50;;
21681;SDS011;11002;48.256;10.084;2023-04-16T11:44:52;2.28;;;2.08;;
21681;SDS011;11002;48.256;10.084;2023-04-16T11:47:21;2.53;;;1.55;;
21681;SDS011;11002;48.256;10.084;2023-04-16T11:49:48;2.20;;;1.83;;
21681;SDS011;11002;48.256;10.084;2023-04-16T11:52:26;2.60;;;2.08;;
21681;SDS011;11002;48.256;10.084;2023-04-16T11:54:54;2.63;;;2.00;;
21681;SDS011;11002;48.256;10.084;2023-04-16T11:57:27;2.10;;;1.90;;
21681;SDS011;11002;48.256;10.084;2023-04-16T11:59:56;4.07;;;3.03;;
21681;SDS011;11002;48.256;10.084;2023-04-16T12:02:36;2.58;;;2.33;;
21681;SDS011;11002;48.256;10.084;2023-04-16T12:05:05;2.47;;;2.28;;
21681;SDS011;11002;48.256;10.084;2023-04-16T12:07:51;2.38;;;2.17;;
21681;SDS011;11002;48.256;10.084;2023-04-16T12:10:19;3.47;;;2.70;;
21681;SDS011;11002;48.256;10.084;2023-04-16T12:12:48;3.78;;;2.15;;
21681;SDS011;11002;48.256;10.084;2023-04-16T12:15:15;6.28;;;2.00;;
21681;SDS011;11002;48.256;10.084;2023-04-16T12:17:43;2.80;;;2.40;;
21681;SDS011;11002;48.256;10.084;2023-04-16T12:20:10;2.03;;;1.88;;
21681;SDS011;11002;48.256;10.084;2023-04-16T12:22:40;2.17;;;1.90;;
21681;SDS011;11002;48.256;10.084;2023-04-16T12:25:11;2.17;;;1.98;;
21681;SDS011;11002;48.256;10.084;2023-04-16T12:27:43;2.33;;;2.13;;
21681;SDS011;11002;48.256;10.084;2023-04-16T12:30:13;2.88;;;2.20;;
21681;SDS011;11002;48.256;10.084;2023-04-16T12:32:41;2.83;;;2.50;;
21681;SDS011;11002;48.256;10.084;2023-04-16T12:35:10;3.20;;;2.33;;
21681;SDS011;11002;48.256;10.084;2023-04-16T12:37:38;5.55;;;2.40;;
21681;SDS011;11002;48.256;10.084;2023-04-16T12:40:06;4.18;;;3.55;;
21681;SDS011;11002;48.256;10.084;2023-04-16T12:42:36;7.13;;;4.00;;
21681;SDS011;11002;48.256;10.084;2023-04-16T12:45:04;4.13;;;3.40;;
21681;SDS011;11002;48.256;10.084;2023-04-16T12:47:33;3.42;;;2.72;;
21681;SDS011;11002;48.256;10.084;2023-04-16T12:50:01;3.53;;;2.67;;
21681;SDS011;11002;48.256;10.084;2023-04-16T12:52:28;3.58;;;2.60;;
21681;SDS011;11002;48.256;10.084;2023-04-16T12:54:55;4.20;;;3.05;;
21681;SDS011;11002;48.256;10.084;2023-04-16T12:57:23;3.13;;;2.70;;
21681;SDS011;11002;48.256;10.084;2023-04-16T12:59:53;3.33;;;2.80;;
21681;SDS011;11002;48.256;10.084;2023-04-16T13:02:21;3.70;;;3.25;;
21681;SDS011;11002;48.256;10.084;2023-04-16T13:04:50;3.83;;;3.17;;
21681;SDS011;11002;48.256;10.084;2023-04-16T13:07:18;3.75;;;2.95;;
21681;SDS011;11002;48.256;10.084;2023-04-16T13:09:46;3.00;;;2.28;;
21681;SDS011;11002;48.256;10.084;2023-04-16T13:12:13;4.55;;;3.05;;
21681;SDS011;11002;48.256;10.084;2023-04-16T13:14:40;2.42;;;2.22;;
21681;SDS011;11002;48.256;10.084;2023-04-16T13:17:08;3.38;;;2.28;;
21681;SDS011;11002;48.256;10.084;2023-04-16T13:19:35;3.28;;;2.70;;
21681;SDS011;11002;48.256;10.084;2023-04-16T13:22:04;3.22;;;2.70;;
21681;SDS011;11002;48.256;10.084;2023-04-16T13:24:31;3.33;;;2.58;;
21681;SDS011;11002;48.256;10.084;2023-04-16T13:26:58;2.28;;;2.08;;
21681;SDS011;11002;48.256;10.084;2023-04-16T13:29:26;4.57;;;2.22;;
21681;SDS011;11002;48.256;10.084;2023-04-16T13:31:54;2.38;;;2.17;;
21681;SDS011;11002;48.256;10.084;2023-04-16T13:34:21;4.25;;;2.20;;
21681;SDS011;11002;48.256;10.084;2023-04-16T13:36:49;2.67;;;2.17;;
21681;SDS011;11002;48.256;10.084;2023-04-16T13:39:17;2.92;;;2.38;;
21681;SDS011;11002;48.256;10.084;2023-04-16T13:41:45;3.03;;;2.72;;
21681;SDS011;11002;48.256;10.084;2023-04-16T13:44:13;6.90;;;4.32;;
21681;SDS011;11002;48.256;10.084;2023-04-16T13:46:43;9.75;;;5.03;;
21681;SDS011;11002;48.256;10.084;2023-04-16T13:49:12;12.80;;;7.40;;
21681;SDS011;11002;48.256;10.084;2023-04-16T13:51:40;1.65;;;1.55;;
21681;SDS011;11002;48.256;10.084;2023-04-16T13:54:08;2.25;;;2.05;;
21681;SDS011;11002;48.256;10.084;2023-04-16T13:56:37;5.18;;;2.80;;
21681;SDS011;11002;48.256;10.084;2023-04-16T13:59:05;2.72;;;2.30;;
21681;SDS011;11002;48.256;10.084;2023-04-16T14:01:32;4.15;;;2.88;;
21681;SDS011;11002;48.256;10.084;2023-04-16T14:04:00;1.90;;;1.80;;
21681;SDS011;11002;48.256;10.084;2023-04-16T14:06:30;1.80;;;1.70;;
21681;SDS011;11002;48.256;10.084;2023-04-16T14:08:57;1.48;;;1.33;;
21681;SDS011;11002;48.256;10.084;2023-04-16T14:11:25;2.40;;;1.63;;
21681;SDS011;11002;48.256;10.084;2023-04-16T14:13:54;1.60;;;1.50;;
21681;SDS011;11002;48.256;10.084;2023-04-16T14:16:22;3.35;;;1.70;;
21681;SDS011;11002;48.256;10.084;2023-04-16T14:18:50;1.70;;;1.60;;
21681;SDS011;11002;48.256;10.084;2023-04-16T14:21:17;3.55;;;1.85;;
21681;SDS011;11002;48.256;10.084;2023-04-16T14:23:44;1.70;;;1.50;;
21681;SDS011;11002;48.256;10.084;2023-04-16T14:26:12;1.95;;;1.67;;
21681;SDS011;11002;48.256;10.084;2023-04-16T14:28:39;1.40;;;1.30;;
21681;SDS011;11002;48.256;10.084;2023-04-16T14:31:12;1.77;;;1.52;;
21681;SDS011;11002;48.256;10.084;2023-04-16T14:33:44;2.13;;;1.60;;
21681;SDS011;11002;48.256;10.084;2023-04-16T14:36:14;2.38;;;1.80;;
21681;SDS011;11002;48.256;10.084;2023-04-16T14:38:41;2.25;;;1.70;;
21681;SDS011;11002;48.256;10.084;2023-04-16T14:41:09;1.75;;;1.55;;
21681;SDS011;11002;48.256;10.084;2023-04-16T14:43:37;1.27;;;1.17;;
21681;SDS011;11002;48.256;10.084;2023-04-16T14:46:05;1.80;;;1.52;;